Time;durP1;ratioP1;P1;durP2;ratioP2;P2;SDS_P1;SDS_P2;PMS_P1;PMS_P2;Temp;Humidity;BMP_temperature;BMP_pressure;BME280_temperature;BME280_humidity;BME280_pressure;Samples;Min_cycle;Max_cycle;Signal;HPM_P1;HPM_P2
2023/11/06 00:00:08;;;;;;;1.57;1.10;;;11.20;99.90;;;;;;5098878;28;20723;-65
2023/11/06 00:02:35;;;;;;;1.53;1.10;;;11.20;99.90;;;;;;5085540;28;20195;-65
2023/11/06 00:05:04;;;;;;;1.77;1.10;;;11.20;99.90;;;;;;5086513;28;20486;-66
2023/11/06 00:07:32;;;;;;;2.67;1.20;;;11.30;99.90;;;;;;5106163;28;20253;-65
2023/11/06 00:09:59;;;;;;;2.40;1.17;;;11.30;99.90;;;;;;5106441;28;20677;-65
2023/11/06 00:12:26;;;;;;;1.20;1.10;;;11.30;99.90;;;;;;5105772;28;20972;-65
2023/11/06 00:14:53;;;;;;;3.33;1.10;;;11.40;99.90;;;;;;5087588;28;20234;-66
2023/11/06 00:17:20;;;;;;;1.83;0.97;;;11.30;99.90;;;;;;5096779;28;20289;-65
2023/11/06 00:19:47;;;;;;;2.67;1.17;;;11.40;99.90;;;;;;5089531;28;20207;-65
2023/11/06 00:22:14;;;;;;;1.40;0.90;;;11.40;99.90;;;;;;5105741;28;20629;-66
2023/11/06 00:24:42;;;;;;;2.23;1.33;;;11.30;99.90;;;;;;5105763;28;20664;-65
2023/11/06 00:27:09;;;;;;;2.50;1.00;;;11.30;99.90;;;;;;5105673;28;20655;-65
2023/11/06 00:29:36;;;;;;;2.20;1.10;;;11.20;99.90;;;;;;5091617;28;20276;-65
2023/11/06 00:32:03;;;;;;;2.27;1.10;;;11.20;99.90;;;;;;5091037;28;20241;-65
2023/11/06 00:34:31;;;;;;;4.63;1.50;;;11.10;99.90;;;;;;5105324;28;20255;-65
2023/11/06 00:36:58;;;;;;;1.97;1.27;;;11.10;99.90;;;;;;5105521;28;20668;-66
2023/11/06 00:39:25;;;;;;;1.67;1.07;;;11.00;99.90;;;;;;5105195;28;20667;-65
2023/11/06 00:41:54;;;;;;;1.77;1.13;;;11.00;99.90;;;;;;5104638;28;20868;-65
2023/11/06 00:44:21;;;;;;;1.77;1.00;;;11.00;99.90;;;;;;5105194;28;20213;-65
2023/11/06 00:46:47;;;;;;;1.53;1.20;;;11.00;99.90;;;;;;5104135;28;20279;-65
2023/11/06 00:49:14;;;;;;;1.97;1.00;;;11.00;99.90;;;;;;5105641;28;20321;-66
2023/11/06 00:51:41;;;;;;;1.03;0.80;;;11.00;99.90;;;;;;5091708;28;20321;-66
2023/11/06 00:54:08;;;;;;;0.67;0.67;;;11.00;99.90;;;;;;5085197;28;20672;-66
2023/11/06 00:56:35;;;;;;;5.30;1.53;;;11.00;99.90;;;;;;5084908;28;20297;-66
2023/11/06 00:59:03;;;;;;;1.83;0.90;;;11.00;99.90;;;;;;5084806;28;20306;-66
2023/11/06 01:01:30;;;;;;;1.30;1.07;;;11.00;99.90;;;;;;5095856;28;20329;-66
2023/11/06 01:03:57;;;;;;;2.30;0.93;;;11.00;99.90;;;;;;5105874;28;20293;-66
2023/11/06 01:06:24;;;;;;;0.93;0.80;;;11.00;99.90;;;;;;5105409;28;20250;-66
2023/11/06 01:08:51;;;;;;;3.13;1.23;;;11.00;99.90;;;;;;5088671;28;20205;-66
2023/11/06 01:11:19;;;;;;;1.80;1.00;;;11.00;99.90;;;;;;5105323;28;20216;-66
2023/11/06 01:13:46;;;;;;;2.80;1.20;;;11.00;99.90;;;;;;5105652;28;20316;-65
2023/11/06 01:16:17;;;;;;;2.27;1.00;;;11.00;99.90;;;;;;5105087;28;20349;-66
2023/11/06 01:18:44;;;;;;;1.93;1.00;;;11.00;99.90;;;;;;5104990;28;20190;-65
2023/11/06 01:21:11;;;;;;;3.17;0.80;;;11.00;99.90;;;;;;5104796;28;20237;-66
2023/11/06 01:23:39;;;;;;;3.23;0.90;;;11.00;99.90;;;;;;5104683;28;20226;-65
2023/11/06 01:26:06;;;;;;;1.10;0.90;;;11.00;99.90;;;;;;5088902;28;20756;-65
2023/11/06 01:28:33;;;;;;;2.77;1.40;;;11.00;99.90;;;;;;5104511;28;20218;-65
2023/11/06 01:31:00;;;;;;;3.53;1.17;;;11.00;99.90;;;;;;5105096;28;20296;-65
2023/11/06 01:33:28;;;;;;;2.33;1.00;;;11.00;99.90;;;;;;5105392;28;20571;-66
2023/11/06 01:35:55;;;;;;;2.00;0.90;;;11.00;99.90;;;;;;5098130;28;20297;-65
2023/11/06 01:38:22;;;;;;;4.13;1.03;;;11.00;99.90;;;;;;5100706;28;20293;-66
2023/11/06 01:40:49;;;;;;;2.60;1.00;;;11.00;99.90;;;;;;5105365;28;20407;-65
2023/11/06 01:43:23;;;;;;;3.53;1.00;;;11.00;99.90;;;;;;5105375;28;20293;-65
2023/11/06 01:45:50;;;;;;;2.80;0.80;;;11.00;99.90;;;;;;5096774;28;20203;-65
2023/11/06 01:48:17;;;;;;;0.83;0.80;;;11.10;99.90;;;;;;5084428;28;20764;-65
2023/11/06 01:50:47;;;;;;;2.30;1.20;;;11.10;99.90;;;;;;5102237;28;20241;-66
2023/11/06 01:53:17;;;;;;;4.40;0.90;;;11.10;99.90;;;;;;5104396;28;20216;-65
2023/11/06 01:55:44;;;;;;;4.43;1.10;;;11.10;99.90;;;;;;5104918;28;20305;-66
2023/11/06 01:58:12;;;;;;;2.40;0.93;;;11.10;99.90;;;;;;5106585;28;20202;-66
2023/11/06 02:00:40;;;;;;;2.03;1.10;;;11.10;99.90;;;;;;5092458;28;20230;-66
2023/11/06 02:03:08;;;;;;;1.70;0.90;;;11.10;99.90;;;;;;5090284;28;20194;-66
2023/11/06 02:05:35;;;;;;;1.27;0.93;;;11.10;99.90;;;;;;5092674;28;20241;-66
2023/11/06 02:08:04;;;;;;;2.17;1.00;;;11.10;99.90;;;;;;5108588;28;20245;-66
2023/11/06 02:10:32;;;;;;;1.80;1.00;;;11.20;99.90;;;;;;5108472;28;20202;-65
2023/11/06 02:12:59;;;;;;;3.23;0.90;;;11.20;99.90;;;;;;5104924;28;20230;-66
2023/11/06 02:15:27;;;;;;;2.33;1.00;;;11.10;99.90;;;;;;5088455;28;20564;-66
2023/11/06 02:17:55;;;;;;;1.13;0.90;;;11.20;99.90;;;;;;5088228;28;20981;-66
2023/11/06 02:20:22;;;;;;;0.93;0.93;;;11.20;99.90;;;;;;5088097;28;20238;-66
2023/11/06 02:22:52;;;;;;;2.17;1.07;;;11.20;99.90;;;;;;5087805;28;20234;-66
2023/11/06 02:25:22;;;;;;;1.13;0.90;;;11.20;99.90;;;;;;5101093;28;20202;-66
2023/11/06 02:27:48;;;;;;;0.80;0.80;;;11.20;99.90;;;;;;5101447;28;20214;-66
2023/11/06 02:30:15;;;;;;;2.00;1.10;;;11.20;99.90;;;;;;5087846;28;20712;-66
2023/11/06 02:32:42;;;;;;;1.43;0.80;;;11.20;99.90;;;;;;5087544;28;20275;-66
2023/11/06 02:35:09;;;;;;;1.70;0.93;;;11.20;99.90;;;;;;5088828;28;20207;-66
2023/11/06 02:37:36;;;;;;;1.10;0.80;;;11.30;99.90;;;;;;5107823;28;20206;-66
2023/11/06 02:40:06;;;;;;;1.00;0.90;;;11.30;99.90;;;;;;5107647;28;20205;-66
2023/11/06 02:42:36;;;;;;;3.37;1.00;;;11.30;99.90;;;;;;5107969;28;20237;-66
2023/11/06 02:45:03;;;;;;;2.10;1.17;;;11.30;99.90;;;;;;5108303;28;20292;-66
2023/11/06 02:47:31;;;;;;;1.70;1.13;;;11.30;99.90;;;;;;5102826;28;20988;-66
2023/11/06 02:49:57;;;;;;;1.20;1.10;;;11.20;99.90;;;;;;5108475;28;20226;-66
2023/11/06 02:52:24;;;;;;;1.27;0.90;;;11.20;99.90;;;;;;5108316;28;20334;-66
2023/11/06 02:54:52;;;;;;;2.37;1.00;;;11.10;99.90;;;;;;5108066;28;20237;-66
2023/11/06 02:57:20;;;;;;;1.53;1.03;;;11.10;99.90;;;;;;5107872;27;20206;-66
2023/11/06 02:59:48;;;;;;;5.83;1.20;;;11.10;99.90;;;;;;5094529;28;20661;-66
2023/11/06 03:02:15;;;;;;;4.90;1.23;;;11.00;99.90;;;;;;5087098;28;21071;-66
2023/11/06 03:04:41;;;;;;;2.07;0.97;;;11.00;99.90;;;;;;5086957;28;20306;-66
2023/11/06 03:07:08;;;;;;;1.33;1.10;;;11.00;99.90;;;;;;5105029;28;20210;-66
2023/11/06 03:09:35;;;;;;;2.17;0.83;;;10.90;99.90;;;;;;5106850;28;20301;-65
2023/11/06 03:12:03;;;;;;;1.37;1.00;;;10.90;99.90;;;;;;5090843;28;20203;-65
2023/11/06 03:14:30;;;;;;;1.30;0.73;;;10.90;99.90;;;;;;5086688;28;20752;-66
2023/11/06 03:16:59;;;;;;;0.97;0.90;;;10.70;99.90;;;;;;5096497;28;20206;-65
2023/11/06 03:19:26;;;;;;;1.90;1.10;;;10.80;99.90;;;;;;5097378;28;20283;-68
2023/11/06 03:21:53;;;;;;;0.90;0.70;;;10.80;99.90;;;;;;5091363;28;20305;-65
2023/11/06 03:24:20;;;;;;;4.50;1.17;;;10.70;99.90;;;;;;5095835;28;20297;-65
2023/11/06 03:26:46;;;;;;;2.00;1.20;;;10.70;99.90;;;;;;5092699;28;20199;-65
2023/11/06 03:29:13;;;;;;;1.63;0.90;;;10.70;99.90;;;;;;5085420;28;20207;-65
2023/11/06 03:31:40;;;;;;;1.53;0.90;;;10.70;99.90;;;;;;5084375;28;20654;-65
2023/11/06 03:34:08;;;;;;;1.77;0.90;;;10.70;99.90;;;;;;5084743;28;20305;-65
2023/11/06 03:36:41;;;;;;;2.57;0.90;;;10.60;99.90;;;;;;5097508;28;20870;-65
2023/11/06 03:39:09;;;;;;;2.20;0.83;;;10.60;99.90;;;;;;5105144;28;20191;-65
2023/11/06 03:41:35;;;;;;;1.93;0.90;;;10.60;99.90;;;;;;5104736;28;20295;-65
2023/11/06 03:44:02;;;;;;;4.77;1.30;;;10.60;99.90;;;;;;5098039;28;20203;-65
2023/11/06 03:46:29;;;;;;;1.17;0.83;;;10.60;99.90;;;;;;5084158;28;20203;-65
2023/11/06 03:48:56;;;;;;;3.03;1.00;;;10.50;99.90;;;;;;5084506;28;20213;-65
2023/11/06 03:51:24;;;;;;;2.23;1.20;;;10.50;99.90;;;;;;5083850;28;20215;-64
2023/11/06 03:53:51;;;;;;;2.57;0.90;;;10.50;99.90;;;;;;5084647;28;20285;-65
2023/11/06 03:56:18;;;;;;;1.00;0.80;;;10.50;99.90;;;;;;5084722;28;20230;-65
2023/11/06 03:58:45;;;;;;;2.10;0.77;;;10.50;99.90;;;;;;5084082;28;20211;-65
2023/11/06 04:01:12;;;;;;;2.40;1.00;;;10.40;99.90;;;;;;5084222;28;20240;-65
2023/11/06 04:03:40;;;;;;;1.83;1.07;;;10.40;99.90;;;;;;5104508;28;20647;-65
2023/11/06 04:06:07;;;;;;;2.33;0.90;;;10.40;99.90;;;;;;5100107;28;20206;-65
2023/11/06 04:08:35;;;;;;;1.30;0.90;;;10.40;99.90;;;;;;5105585;28;20300;-65
2023/11/06 04:11:02;;;;;;;0.77;0.77;;;10.30;99.90;;;;;;5105431;28;20217;-65
2023/11/06 04:13:29;;;;;;;4.97;1.17;;;10.40;99.90;;;;;;5092174;28;20298;-65
2023/11/06 04:15:56;;;;;;;0.80;0.80;;;10.30;99.90;;;;;;5084936;28;20206;-65
2023/11/06 04:18:23;;;;;;;2.90;0.97;;;10.30;99.90;;;;;;5085221;28;20266;-65
2023/11/06 04:20:50;;;;;;;3.10;1.07;;;10.30;99.90;;;;;;5084145;28;20306;-65
2023/11/06 04:23:17;;;;;;;2.97;0.60;;;10.30;99.90;;;;;;5084806;28;20721;-65
2023/11/06 04:25:48;;;;;;;1.00;0.87;;;10.20;99.90;;;;;;5085383;28;20577;-65
2023/11/06 04:28:15;;;;;;;1.10;0.90;;;10.20;99.90;;;;;;5085178;28;20222;-65
2023/11/06 04:30:43;;;;;;;2.40;1.17;;;10.20;99.90;;;;;;5084581;28;20306;-65
2023/11/06 04:33:10;;;;;;;1.53;0.90;;;10.20;99.90;;;;;;5085336;28;20207;-65
2023/11/06 04:35:37;;;;;;;3.47;1.20;;;10.10;99.90;;;;;;5085265;28;20886;-65
2023/11/06 04:38:05;;;;;;;1.30;0.60;;;10.10;99.90;;;;;;5085175;28;20211;-65
2023/11/06 04:40:32;;;;;;;2.47;0.97;;;10.10;99.90;;;;;;5104000;28;20209;-65
2023/11/06 04:43:01;;;;;;;1.23;0.80;;;10.10;99.90;;;;;;5105525;28;20233;-65
2023/11/06 04:45:28;;;;;;;2.90;1.00;;;10.10;99.90;;;;;;5105526;28;20202;-65
2023/11/06 04:47:54;;;;;;;1.27;0.90;;;10.10;99.90;;;;;;5105844;28;20296;-65
2023/11/06 04:50:21;;;;;;;1.00;0.70;;;10.10;99.90;;;;;;5105754;28;20238;-65
2023/11/06 04:52:48;;;;;;;3.00;0.80;;;10.10;99.90;;;;;;5105374;28;20205;-65
2023/11/06 04:55:15;;;;;;;2.33;0.80;;;10.10;99.90;;;;;;5105935;28;20507;-65
2023/11/06 04:57:42;;;;;;;0.83;0.83;;;10.10;99.90;;;;;;5105331;28;20748;-65
2023/11/06 05:00:11;;;;;;;2.70;1.10;;;10.10;99.90;;;;;;5105000;28;20238;-65
2023/11/06 05:02:38;;;;;;;3.03;1.00;;;10.10;99.90;;;;;;5104792;28;20298;-65
2023/11/06 05:05:09;;;;;;;1.83;0.70;;;10.10;99.90;;;;;;5105092;28;20462;-65
2023/11/06 05:07:36;;;;;;;2.40;1.00;;;10.20;99.90;;;;;;5104614;28;20198;-65
2023/11/06 05:10:05;;;;;;;1.47;1.00;;;10.20;99.90;;;;;;5104732;28;20249;-65
2023/11/06 05:12:32;;;;;;;3.60;1.07;;;10.20;99.90;;;;;;5105129;28;20285;-65
2023/11/06 05:15:00;;;;;;;0.50;0.50;;;10.30;99.90;;;;;;5104760;28;20202;-65
2023/11/06 05:17:28;;;;;;;1.80;0.87;;;10.30;99.90;;;;;;5105216;28;20262;-65
2023/11/06 05:19:55;;;;;;;2.90;0.80;;;10.30;99.90;;;;;;5105105;28;20691;-65
2023/11/06 05:22:22;;;;;;;1.50;1.00;;;10.40;99.90;;;;;;5096206;28;20234;-65
2023/11/06 05:24:49;;;;;;;2.70;1.20;;;10.40;99.90;;;;;;5084620;28;20309;-65
2023/11/06 05:27:16;;;;;;;3.33;1.30;;;10.40;99.90;;;;;;5084947;28;20318;-65
2023/11/06 05:29:44;;;;;;;4.33;0.97;;;10.40;99.90;;;;;;5084608;28;20209;-65
2023/11/06 05:32:10;;;;;;;1.60;0.80;;;10.40;99.90;;;;;;5084662;28;20293;-65
2023/11/06 05:34:39;;;;;;;3.17;1.10;;;10.40;99.90;;;;;;5088409;28;20649;-65
2023/11/06 05:37:06;;;;;;;0.93;0.77;;;10.40;99.90;;;;;;5088657;28;20215;-65
2023/11/06 05:39:35;;;;;;;3.17;1.00;;;10.40;99.90;;;;;;5098901;28;20752;-65
2023/11/06 05:42:02;;;;;;;1.80;0.80;;;10.50;99.90;;;;;;5108614;28;20748;-65
2023/11/06 05:44:29;;;;;;;0.80;0.80;;;10.50;99.90;;;;;;5108563;27;20202;-65
2023/11/06 05:46:56;;;;;;;2.67;0.87;;;10.50;99.90;;;;;;5108608;28;20246;-65
2023/11/06 05:49:23;;;;;;;0.73;0.50;;;10.60;99.90;;;;;;5109325;28;20212;-65
2023/11/06 05:51:52;;;;;;;1.80;0.70;;;10.60;99.90;;;;;;5109153;28;20289;-65
2023/11/06 05:54:19;;;;;;;2.10;1.10;;;10.60;99.90;;;;;;5109144;28;20267;-65
2023/11/06 05:56:46;;;;;;;1.40;0.80;;;10.60;99.90;;;;;;5108995;28;20685;-65
2023/11/06 05:59:13;;;;;;;1.70;0.90;;;10.60;99.90;;;;;;5108564;28;20803;-65
2023/11/06 06:01:40;;;;;;;2.33;0.90;;;10.60;99.90;;;;;;5103446;27;20210;-65
2023/11/06 06:04:07;;;;;;;2.73;1.00;;;10.60;99.90;;;;;;5087766;28;20349;-65
2023/11/06 06:06:34;;;;;;;1.77;0.87;;;10.60;99.90;;;;;;5105272;28;20328;-65
2023/11/06 06:09:03;;;;;;;3.57;1.20;;;10.60;99.90;;;;;;5108232;27;20732;-65
2023/11/06 06:11:36;;;;;;;2.03;0.80;;;10.60;99.90;;;;;;5108252;28;20625;-65
2023/11/06 06:14:03;;;;;;;1.83;0.93;;;10.60;99.90;;;;;;5108656;28;20267;-65
2023/11/06 06:16:29;;;;;;;2.73;1.00;;;10.60;99.90;;;;;;5108035;28;20212;-65
2023/11/06 06:18:56;;;;;;;1.03;0.93;;;10.70;99.90;;;;;;5108224;28;20217;-65
2023/11/06 06:21:23;;;;;;;1.90;0.83;;;10.70;99.90;;;;;;5107451;28;20216;-65
2023/11/06 06:23:50;;;;;;;1.70;1.10;;;10.70;99.90;;;;;;5087679;28;20226;-65
2023/11/06 06:26:18;;;;;;;3.27;1.07;;;10.70;99.90;;;;;;5088180;28;20298;-65
2023/11/06 06:28:45;;;;;;;1.77;0.97;;;10.70;99.90;;;;;;5087805;28;20255;-65
2023/11/06 06:31:13;;;;;;;2.83;1.20;;;10.70;99.90;;;;;;5087682;28;20301;-65
2023/11/06 06:33:40;;;;;;;3.30;0.90;;;10.70;99.90;;;;;;5088300;28;20216;-65
2023/11/06 06:36:11;;;;;;;3.27;0.77;;;10.70;99.90;;;;;;5096749;28;20739;-65
2023/11/06 06:38:38;;;;;;;0.73;0.50;;;10.70;99.90;;;;;;5108282;28;20204;-65
2023/11/06 06:41:06;;;;;;;1.50;0.70;;;10.70;99.90;;;;;;5108275;28;20286;-65
2023/11/06 06:43:35;;;;;;;2.73;0.90;;;10.70;99.90;;;;;;5107158;28;20303;-65
2023/11/06 06:46:02;;;;;;;1.87;0.80;;;10.70;99.90;;;;;;5107184;28;20216;-65
2023/11/06 06:48:31;;;;;;;2.27;0.77;;;10.70;99.90;;;;;;5108012;28;20283;-65
2023/11/06 06:50:58;;;;;;;0.97;0.87;;;10.70;99.90;;;;;;5107535;28;20321;-65
2023/11/06 06:53:25;;;;;;;1.07;0.70;;;10.70;99.90;;;;;;5107613;28;20285;-65
2023/11/06 06:55:52;;;;;;;1.97;1.10;;;10.70;99.90;;;;;;5107530;28;20206;-65
2023/11/06 06:58:19;;;;;;;3.00;0.70;;;10.70;99.90;;;;;;5107655;28;20264;-65
2023/11/06 07:00:48;;;;;;;3.60;1.50;;;10.80;99.90;;;;;;5106781;28;20246;-66
2023/11/06 07:03:14;;;;;;;3.17;0.90;;;10.80;99.90;;;;;;5087099;28;20649;-65
2023/11/06 07:05:41;;;;;;;1.10;0.70;;;10.70;99.90;;;;;;5086785;28;20207;-65
2023/11/06 07:08:08;;;;;;;2.00;0.70;;;10.70;99.90;;;;;;5086982;28;20669;-65
2023/11/06 07:10:35;;;;;;;1.73;0.60;;;10.80;99.90;;;;;;5086910;28;20238;-65
2023/11/06 07:13:03;;;;;;;0.97;0.90;;;10.80;99.90;;;;;;5086711;28;20301;-65
2023/11/06 07:15:30;;;;;;;1.70;0.43;;;10.80;99.90;;;;;;5086672;28;20202;-65
2023/11/06 07:18:00;;;;;;;2.10;0.70;;;10.80;99.90;;;;;;5089793;28;20213;-65
2023/11/06 07:20:27;;;;;;;1.83;0.73;;;10.80;99.90;;;;;;5107262;28;20292;-65
2023/11/06 07:22:55;;;;;;;1.70;0.90;;;10.80;99.90;;;;;;5107071;28;20320;-65
2023/11/06 07:25:21;;;;;;;1.33;0.70;;;10.90;99.90;;;;;;5107134;28;20206;-65
2023/11/06 07:27:49;;;;;;;2.50;0.80;;;10.90;99.90;;;;;;5106789;28;20209;-65
2023/11/06 07:30:16;;;;;;;0.90;0.60;;;11.00;99.90;;;;;;5106998;28;20202;-65
2023/11/06 07:32:42;;;;;;;1.47;0.50;;;11.00;99.90;;;;;;5106625;28;20305;-65
2023/11/06 07:35:12;;;;;;;1.50;0.80;;;11.00;99.90;;;;;;5106145;28;20234;-65
2023/11/06 07:37:39;;;;;;;2.67;0.60;;;11.00;99.90;;;;;;5086390;28;20663;-65
2023/11/06 07:40:08;;;;;;;2.43;0.60;;;11.00;99.90;;;;;;5101768;28;20289;-65
2023/11/06 07:42:35;;;;;;;2.27;0.77;;;11.00;99.90;;;;;;5106772;28;20692;-65
2023/11/06 07:45:03;;;;;;;1.57;0.70;;;11.10;99.90;;;;;;5106868;28;20461;-65
2023/11/06 07:47:30;;;;;;;1.50;0.73;;;11.20;99.90;;;;;;5106429;28;20617;-65
2023/11/06 07:49:57;;;;;;;2.33;0.70;;;11.20;99.90;;;;;;5106690;28;20210;-65
2023/11/06 07:52:25;;;;;;;2.27;0.73;;;11.30;99.90;;;;;;5106819;28;20214;-65
2023/11/06 07:54:52;;;;;;;1.13;0.77;;;11.40;99.90;;;;;;5106368;28;20236;-65
2023/11/06 07:57:19;;;;;;;1.83;0.70;;;11.50;99.90;;;;;;5105907;28;20562;-65
2023/11/06 07:59:46;;;;;;;3.00;0.70;;;11.50;99.90;;;;;;5106270;28;20230;-65
2023/11/06 08:02:13;;;;;;;0.83;0.60;;;11.50;99.90;;;;;;5106395;28;20306;-65
2023/11/06 08:04:40;;;;;;;2.30;0.90;;;11.50;99.90;;;;;;5105832;28;20594;-65
2023/11/06 08:07:07;;;;;;;1.23;0.70;;;11.60;99.90;;;;;;5088744;28;20214;-65
2023/11/06 08:09:36;;;;;;;2.03;0.70;;;11.60;99.90;;;;;;5085260;28;20306;-66
2023/11/06 08:12:03;;;;;;;1.67;0.57;;;11.70;99.90;;;;;;5085339;28;20932;-65
2023/11/06 08:14:33;;;;;;;2.00;0.70;;;11.70;99.90;;;;;;5085043;28;20214;-65
2023/11/06 08:17:00;;;;;;;1.10;0.50;;;11.70;99.90;;;;;;5085273;28;20221;-65
2023/11/06 08:19:27;;;;;;;1.00;0.57;;;11.80;99.90;;;;;;5085309;28;20359;-65
2023/11/06 08:21:54;;;;;;;1.63;0.73;;;11.80;99.90;;;;;;5085174;28;20314;-64
2023/11/06 08:24:20;;;;;;;2.97;0.60;;;11.90;99.90;;;;;;5085686;28;20640;-65
2023/11/06 08:26:52;;;;;;;0.63;0.27;;;12.00;99.90;;;;;;5085179;28;20685;-65
2023/11/06 08:29:19;;;;;;;0.60;0.40;;;12.10;99.90;;;;;;5085619;28;20199;-64
2023/11/06 08:31:46;;;;;;;1.27;0.67;;;12.00;99.90;;;;;;5084856;28;20684;-64
2023/11/06 08:34:13;;;;;;;1.50;0.40;;;12.10;99.90;;;;;;5085821;28;20307;-64
2023/11/06 08:36:44;;;;;;;1.27;0.70;;;12.20;99.90;;;;;;5085578;28;20297;-64
2023/11/06 08:39:20;;;;;;;0.60;0.50;;;12.20;99.90;;;;;;5092921;28;20186;-64
2023/11/06 08:41:47;;;;;;;1.33;0.30;;;12.10;99.90;;;;;;5105784;28;20201;-64
2023/11/06 08:44:15;;;;;;;0.50;0.50;;;12.10;99.90;;;;;;5105377;27;20237;-64
2023/11/06 08:46:42;;;;;;;1.43;0.50;;;12.00;99.90;;;;;;5105048;28;21157;-65
2023/11/06 08:49:09;;;;;;;0.80;0.40;;;12.00;99.90;;;;;;5105457;28;20585;-64
2023/11/06 08:51:36;;;;;;;1.53;0.57;;;11.90;99.90;;;;;;5104900;28;20210;-65
2023/11/06 08:54:03;;;;;;;0.93;0.50;;;11.90;99.90;;;;;;5105283;28;20284;-64
2023/11/06 08:56:31;;;;;;;2.47;0.60;;;11.90;99.90;;;;;;5105511;28;20216;-65
2023/11/06 08:58:59;;;;;;;1.53;0.63;;;11.90;99.90;;;;;;5105019;28;20208;-65
2023/11/06 09:01:27;;;;;;;1.80;0.60;;;11.90;99.90;;;;;;5105487;28;20228;-65
2023/11/06 09:03:54;;;;;;;0.80;0.67;;;11.90;99.90;;;;;;5105242;28;20387;-65
2023/11/06 09:06:22;;;;;;;2.90;0.63;;;11.80;99.90;;;;;;5105720;28;20213;-65
2023/11/06 09:08:49;;;;;;;1.13;0.67;;;11.80;99.90;;;;;;5111022;28;20580;-65
2023/11/06 09:11:16;;;;;;;1.27;0.67;;;11.80;99.90;;;;;;5102226;27;20798;-65
2023/11/06 09:13:44;;;;;;;1.93;1.00;;;11.80;99.90;;;;;;5091595;28;20203;-65
2023/11/06 09:16:11;;;;;;;1.03;0.63;;;11.80;99.90;;;;;;5091948;28;20210;-65
2023/11/06 09:18:39;;;;;;;1.27;0.90;;;11.80;99.90;;;;;;5092036;28;20229;-65
2023/11/06 09:21:12;;;;;;;0.70;0.70;;;11.80;99.90;;;;;;5091797;28;20310;-65
2023/11/06 09:23:39;;;;;;;2.93;0.73;;;11.80;99.90;;;;;;5091558;28;20283;-65
2023/11/06 09:26:06;;;;;;;1.03;0.73;;;11.80;99.90;;;;;;5091559;28;20203;-65
2023/11/06 09:28:33;;;;;;;1.17;0.60;;;11.80;99.90;;;;;;5091627;28;20296;-65
2023/11/06 09:30:59;;;;;;;2.67;1.10;;;11.80;99.90;;;;;;5091412;28;20297;-65
2023/11/06 09:33:27;;;;;;;1.23;0.60;;;11.80;99.90;;;;;;5091830;28;20297;-65
2023/11/06 09:35:55;;;;;;;1.17;0.90;;;11.90;99.90;;;;;;5098734;28;20296;-65
2023/11/06 09:38:22;;;;;;;1.53;0.97;;;11.90;99.90;;;;;;5111660;27;20208;-65
2023/11/06 09:40:48;;;;;;;1.20;0.70;;;11.90;99.90;;;;;;5111709;27;20240;-65
2023/11/06 09:43:16;;;;;;;4.00;1.23;;;11.90;99.90;;;;;;5111292;27;20849;-65
2023/11/06 09:45:43;;;;;;;1.60;0.83;;;11.90;99.90;;;;;;5111319;27;20202;-65
2023/11/06 09:48:11;;;;;;;2.00;0.80;;;11.90;99.90;;;;;;5111727;27;20205;-65
2023/11/06 09:50:42;;;;;;;2.13;0.90;;;12.00;99.90;;;;;;5110944;27;20745;-65
2023/11/06 09:53:11;;;;;;;0.93;0.93;;;12.00;99.90;;;;;;5111566;27;20247;-65
2023/11/06 09:55:39;;;;;;;1.87;1.10;;;12.10;99.90;;;;;;5091330;27;20213;-65
2023/11/06 09:58:06;;;;;;;1.60;0.63;;;12.20;99.90;;;;;;5091405;28;20246;-65
2023/11/06 10:00:33;;;;;;;1.27;0.80;;;12.20;99.90;;;;;;5090397;28;20705;-65
2023/11/06 10:03:00;;;;;;;1.47;1.30;;;12.40;99.90;;;;;;5091854;28;20203;-65
2023/11/06 10:05:27;;;;;;;4.17;2.07;;;12.60;99.90;;;;;;5091356;28;20833;-65
2023/11/06 10:07:55;;;;;;;1.60;1.27;;;12.80;99.90;;;;;;5091419;28;20210;-65
2023/11/06 10:10:24;;;;;;;2.13;0.93;;;12.90;99.90;;;;;;5091676;28;20206;-65
2023/11/06 10:13:03;;;;;;;2.77;0.93;;;13.00;99.90;;;;;;5091468;28;20370;-65
2023/11/06 10:15:29;;;;;;;1.67;1.03;;;13.20;99.90;;;;;;5090966;28;20202;-65
2023/11/06 10:17:57;;;;;;;1.50;1.03;;;13.30;99.90;;;;;;5091260;28;20424;-65
2023/11/06 10:20:27;;;;;;;2.00;1.00;;;13.30;99.90;;;;;;5087772;28;20215;-65
2023/11/06 10:22:55;;;;;;;1.00;0.90;;;13.20;99.90;;;;;;5087697;28;20293;-65
2023/11/06 10:25:27;;;;;;;2.83;0.83;;;13.00;99.90;;;;;;5087751;28;20321;-65
2023/11/06 10:27:55;;;;;;;3.07;1.70;;;12.90;99.90;;;;;;5087979;28;20307;-65
2023/11/06 10:30:22;;;;;;;2.07;0.70;;;12.90;99.90;;;;;;5087819;28;20245;-65
2023/11/06 10:32:49;;;;;;;1.57;0.90;;;12.80;99.90;;;;;;5087318;28;20293;-65
2023/11/06 10:35:17;;;;;;;2.73;1.10;;;12.70;99.90;;;;;;5089079;28;20199;-65
2023/11/06 10:37:45;;;;;;;3.00;1.17;;;12.70;99.90;;;;;;5107408;28;20238;-65
2023/11/06 10:40:13;;;;;;;1.10;0.73;;;12.60;99.90;;;;;;5107618;28;20293;-65
2023/11/06 10:42:43;;;;;;;4.37;1.03;;;12.60;99.90;;;;;;5107386;28;20218;-65
2023/11/06 10:45:13;;;;;;;1.87;0.97;;;12.60;99.90;;;;;;5107277;27;20226;-65
2023/11/06 10:47:45;;;;;;;1.37;1.03;;;12.70;99.90;;;;;;5106872;28;20246;-65
2023/11/06 10:50:17;;;;;;;1.97;0.97;;;12.70;99.90;;;;;;5107674;28;20205;-65
2023/11/06 10:52:49;;;;;;;1.77;0.90;;;12.70;99.90;;;;;;5107713;28;20526;-65
2023/11/06 10:55:17;;;;;;;0.97;0.70;;;12.70;99.90;;;;;;5107675;28;20284;-65
2023/11/06 10:57:50;;;;;;;3.63;0.77;;;12.80;99.90;;;;;;5107399;28;20668;-66
2023/11/06 11:00:20;;;;;;;1.50;0.80;;;12.80;99.90;;;;;;5107715;28;20337;-66
2023/11/06 11:02:51;;;;;;;1.90;0.90;;;12.90;99.90;;;;;;5107895;28;20409;-65
2023/11/06 11:05:19;;;;;;;1.23;0.70;;;13.00;99.90;;;;;;5105834;28;20261;-66
2023/11/06 11:07:49;;;;;;;2.43;1.07;;;13.00;99.90;;;;;;5087247;28;20202;-65
2023/11/06 11:10:18;;;;;;;1.27;1.03;;;13.10;99.90;;;;;;5087047;28;20741;-66
2023/11/06 11:12:49;;;;;;;2.33;0.90;;;13.20;99.90;;;;;;5101123;28;20768;-66
2023/11/06 11:15:23;;;;;;;2.80;1.00;;;13.20;99.90;;;;;;5107254;28;20282;-66
2023/11/06 11:17:58;;;;;;;2.00;1.00;;;13.20;99.90;;;;;;5107212;28;20623;-66
2023/11/06 11:20:25;;;;;;;2.33;0.90;;;13.20;99.90;;;;;;5107148;28;20288;-66
2023/11/06 11:23:07;;;;;;;2.13;1.00;;;13.20;99.90;;;;;;5107251;28;20289;-66
2023/11/06 11:25:57;;;;;;;1.60;0.77;;;13.20;99.90;;;;;;5106852;28;20303;-66
2023/11/06 11:28:26;;;;;;;2.73;0.67;;;13.30;99.90;;;;;;5107280;28;20306;-66
2023/11/06 11:30:54;;;;;;;1.67;0.83;;;13.40;99.90;;;;;;5106411;28;20697;-66
2023/11/06 11:33:53;;;;;;;2.63;0.80;;;13.40;99.90;;;;;;5107202;28;20934;-66
2023/11/06 11:36:38;;;;;;;3.77;0.80;;;13.50;99.90;;;;;;5106997;28;20921;-66
2023/11/06 11:39:06;;;;;;;1.30;0.90;;;13.60;99.90;;;;;;5107337;28;20209;-66
2023/11/06 11:41:33;;;;;;;1.03;0.77;;;13.70;99.90;;;;;;5107081;28;20587;-65
2023/11/06 11:44:10;;;;;;;1.13;0.60;;;13.80;99.90;;;;;;5091010;27;20253;-66
2023/11/06 11:46:59;;;;;;;2.47;0.90;;;13.90;99.90;;;;;;5086720;28;20206;-66
2023/11/06 11:49:41;;;;;;;1.73;0.63;;;14.00;99.90;;;;;;5086748;28;20203;-66
2023/11/06 11:52:09;;;;;;;3.47;0.90;;;14.10;99.90;;;;;;5087175;28;20366;-66
2023/11/06 11:54:38;;;;;;;1.53;0.70;;;13.90;99.90;;;;;;5086655;28;20203;-66
2023/11/06 11:57:05;;;;;;;3.17;1.00;;;13.70;99.90;;;;;;5086790;28;20217;-66
2023/11/06 11:59:41;;;;;;;3.67;1.10;;;13.60;99.90;;;;;;5091653;28;20319;-66
2023/11/06 12:02:23;;;;;;;1.17;0.77;;;13.50;99.90;;;;;;5106264;28;20194;-66
2023/11/06 12:04:51;;;;;;;2.93;0.57;;;13.40;99.90;;;;;;5105980;28;20233;-66
2023/11/06 12:07:18;;;;;;;3.17;1.10;;;13.20;99.90;;;;;;5106217;28;20218;-65
2023/11/06 12:09:47;;;;;;;1.73;0.50;;;13.20;99.90;;;;;;5106021;28;20206;-66
2023/11/06 12:12:19;;;;;;;1.07;0.70;;;13.20;99.90;;;;;;5106265;28;20206;-66
2023/11/06 12:14:47;;;;;;;0.83;0.80;;;13.10;99.90;;;;;;5106301;28;20281;-66
2023/11/06 12:17:26;;;;;;;2.10;0.97;;;13.10;99.90;;;;;;5106199;28;20289;-66
2023/11/06 12:19:53;;;;;;;3.17;1.00;;;13.10;99.90;;;;;;5106327;28;20289;-66
2023/11/06 12:22:20;;;;;;;4.37;1.13;;;13.00;99.90;;;;;;5106432;28;20210;-66
2023/11/06 12:24:49;;;;;;;2.47;0.90;;;13.00;99.90;;;;;;5105974;28;20659;-66
2023/11/06 12:27:17;;;;;;;2.57;0.90;;;13.00;99.90;;;;;;5106364;28;20212;-66
2023/11/06 12:29:45;;;;;;;1.30;0.83;;;12.90;99.90;;;;;;5106088;28;20256;-66
2023/11/06 12:32:24;;;;;;;3.80;1.07;;;12.90;99.90;;;;;;5105558;27;20206;-66
2023/11/06 12:35:07;;;;;;;3.50;1.20;;;12.90;99.90;;;;;;5106116;28;20209;-66
2023/11/06 12:37:54;;;;;;;2.83;1.00;;;12.90;99.90;;;;;;5085467;28;20197;-66
2023/11/06 12:40:25;;;;;;;0.80;0.67;;;12.90;99.90;;;;;;5102091;28;20316;-66
2023/11/06 12:42:53;;;;;;;2.10;0.73;;;12.90;99.90;;;;;;5105033;28;20194;-66
2023/11/06 12:45:28;;;;;;;2.27;0.97;;;13.00;99.90;;;;;;5105920;28;20366;-66
2023/11/06 12:47:56;;;;;;;1.57;0.80;;;13.00;99.90;;;;;;5105492;28;20214;-66
2023/11/06 12:50:23;;;;;;;1.47;0.93;;;13.00;99.90;;;;;;5105936;28;20647;-66
2023/11/06 12:52:50;;;;;;;2.20;1.00;;;13.00;99.90;;;;;;5105699;28;20205;-66